Time;durP1;ratioP1;P1;durP2;ratioP2;P2;SDS_P1;SDS_P2;PMS_P1;PMS_P2;Temp;Humidity;BMP_temperature;BMP_pressure;BME280_temperature;BME280_humidity;BME280_pressure;Samples;Min_cycle;Max_cycle;Signal;HPM_P1;HPM_P2
2023/01/01 01:46:41;;;;;;;0.00;0.00;;;15.60;97.80;;;;;;5016366;28;20098;-89
2023/01/01 01:49:28;;;;;;;;;;;15.60;98.00;;;;;;5000955;28;20018;-87
2023/01/01 01:51:55;;;;;;;0.00;0.00;;;15.60;97.10;;;;;;5003542;28;19925;-88
2023/01/01 01:54:23;;;;;;;0.00;0.00;;;15.50;97.30;;;;;;4998441;28;20021;-86
2023/01/01 01:56:54;;;;;;;0.00;0.00;;;15.60;97.10;;;;;;4998756;28;20030;-88
2023/01/01 01:59:23;;;;;;;0.03;0.03;;;15.60;97.20;;;;;;4999036;28;20042;-87
2023/01/01 02:01:49;;;;;;;0.00;0.00;;;15.60;97.00;;;;;;4993106;28;20034;-89
2023/01/01 02:04:15;;;;;;;0.00;0.00;;;15.70;97.00;;;;;;5000434;28;20044;-88
2023/01/01 02:06:42;;;;;;;0.00;0.00;;;15.60;96.70;;;;;;5003676;28;20045;-88
2023/01/01 02:09:07;;;;;;;0.00;0.00;;;15.70;96.30;;;;;;4995940;28;20019;-90
2023/01/01 02:11:33;;;;;;;0.00;0.00;;;;;;;;;;5005151;28;20089;-88
2023/01/01 02:14:01;;;;;;;0.00;0.00;;;15.60;96.20;;;;;;5011922;28;20095;-89
2023/01/01 02:16:45;;;;;;;0.00;0.00;;;15.70;96.30;;;;;;5013455;28;20050;-90
2023/01/01 02:19:19;;;;;;;0.00;0.00;;;15.60;96.00;;;;;;5012025;28;20044;-89
2023/01/01 02:21:58;;;;;;;0.00;0.00;;;15.60;96.30;;;;;;5000247;28;20033;-88
2023/01/01 02:24:58;;;;;;;0.00;0.00;;;15.50;96.10;;;;;;5000109;28;20124;-89
2023/01/01 02:27:47;;;;;;;0.05;0.05;;;15.50;96.50;;;;;;5020956;28;20021;-90
2023/01/01 02:30:14;;;;;;;0.00;0.00;;;15.50;95.90;;;;;;5010989;28;20045;-89
2023/01/01 02:32:45;;;;;;;0.00;0.00;;;15.50;96.40;;;;;;5001452;28;20042;-88
2023/01/01 02:35:37;;;;;;;0.00;0.00;;;15.50;96.20;;;;;;4999887;28;20050;-89
2023/01/01 02:38:23;;;;;;;0.00;0.00;;;15.40;96.50;;;;;;5000146;28;20014;-88
2023/01/01 02:40:54;;;;;;;0.00;0.00;;;15.30;96.40;;;;;;4997393;28;20018;-89
2023/01/01 02:43:20;;;;;;;0.00;0.00;;;;;;;;;;5000668;28;20044;-89
2023/01/01 02:45:46;;;;;;;0.00;0.00;;;;;;;;;;4998864;28;20218;-87
2023/01/01 02:48:34;;;;;;;0.00;0.00;;;15.30;96.20;;;;;;5016620;28;20011;-90
2023/01/01 02:51:04;;;;;;;0.00;0.00;;;15.20;95.90;;;;;;4997482;28;20021;-89
2023/01/01 02:53:36;;;;;;;0.00;0.00;;;15.20;96.30;;;;;;5001395;28;20045;-90
2023/01/01 02:56:37;;;;;;;0.00;0.00;;;15.20;95.80;;;;;;4995976;28;20037;-89
2023/01/01 03:02:17;;;;;;;0.00;0.00;;;15.20;96.10;;;;;;5012847;28;20022;-90
2023/01/01 03:05:10;;;;;;;0.00;0.00;;;15.20;95.70;;;;;;5017688;28;20042;-90
2023/01/01 03:07:59;;;;;;;0.00;0.00;;;15.20;95.70;;;;;;5021784;28;20069;-89
2023/01/01 03:10:46;;;;;;;0.00;0.00;;;15.20;95.60;;;;;;5003980;28;20025;-90
2023/01/01 03:13:24;;;;;;;0.00;0.00;;;15.30;95.20;;;;;;5012865;28;20012;-89
2023/01/01 03:16:03;;;;;;;0.00;0.00;;;15.10;95.20;;;;;;5000983;28;20058;-90
2023/01/01 03:18:42;;;;;;;0.00;0.00;;;15.10;94.90;;;;;;5001982;28;20067;-90
2023/01/01 03:21:09;;;;;;;0.00;0.00;;;15.10;94.70;;;;;;5014521;28;20018;-89
2023/01/01 03:23:39;;;;;;;0.00;0.00;;;15.10;94.70;;;;;;4999379;28;20021;-89
2023/01/01 03:26:12;;;;;;;0.00;0.00;;;15.10;94.60;;;;;;4992587;28;20054;-88
2023/01/01 03:28:48;;;;;;;0.00;0.00;;;15.10;94.40;;;;;;5014953;28;20030;-90
2023/01/01 03:31:18;;;;;;;0.00;0.00;;;15.10;94.50;;;;;;4996957;28;20040;-88
2023/01/01 03:33:48;;;;;;;0.00;0.00;;;15.10;94.20;;;;;;5002626;28;20160;-89
2023/01/01 03:36:23;;;;;;;0.00;0.00;;;15.10;94.30;;;;;;5002980;28;20030;-90
2023/01/01 03:38:54;;;;;;;0.00;0.00;;;15.10;94.70;;;;;;5004999;28;20029;-88
2023/01/01 03:41:33;;;;;;;0.00;0.00;;;15.10;94.30;;;;;;5005775;28;20015;-89
2023/01/01 03:44:11;;;;;;;0.10;0.10;;;15.00;94.30;;;;;;5021462;28;20010;-88
2023/01/01 03:46:36;;;;;;;0.00;0.00;;;15.20;94.30;;;;;;5015713;28;20030;-90
2023/01/01 03:49:05;;;;;;;0.00;0.00;;;15.10;94.50;;;;;;5002920;28;20041;-90
2023/01/01 03:51:49;;;;;;;0.00;0.00;;;15.10;94.30;;;;;;5002174;28;20018;-88
2023/01/01 03:54:22;;;;;;;0.00;0.00;;;15.00;94.00;;;;;;4998930;28;20046;-89
2023/01/01 03:57:19;;;;;;;0.00;0.00;;;15.00;94.30;;;;;;5017168;28;20030;-88
2023/01/01 04:00:01;;;;;;;0.00;0.00;;;15.10;94.50;;;;;;4982399;28;20048;-85
2023/01/01 04:02:33;;;;;;;0.00;0.00;;;15.10;94.20;;;;;;5013932;28;20038;-90
2023/01/01 04:05:00;;;;;;;0.00;0.00;;;15.10;93.80;;;;;;4998777;28;20053;-88
2023/01/01 04:07:29;;;;;;;0.00;0.00;;;15.00;94.20;;;;;;5001530;28;20200;-88
2023/01/01 04:09:56;;;;;;;0.00;0.00;;;15.00;94.30;;;;;;5002171;28;20018;-89
2023/01/01 04:12:22;;;;;;;0.00;0.00;;;;;;;;;;5005769;28;20006;-89
2023/01/01 04:14:48;;;;;;;0.00;0.00;;;;;;;;;;4998399;28;20030;-88
2023/01/01 04:17:14;;;;;;;0.00;0.00;;;15.00;94.50;;;;;;5014674;28;20083;-89
2023/01/01 04:19:40;;;;;;;0.10;0.10;;;14.90;94.70;;;;;;5004635;28;20037;-89
2023/01/01 04:22:05;;;;;;;0.00;0.00;;;14.80;94.60;;;;;;5003176;28;20057;-91
2023/01/01 04:24:31;;;;;;;0.00;0.00;;;;;;;;;;5001183;28;20006;-89
2023/01/01 04:26:57;;;;;;;0.00;0.00;;;;;;;;;;4997562;28;20102;-90
2023/01/01 04:29:23;;;;;;;0.00;0.00;;;;;;;;;;5004993;28;20038;-89
2023/01/01 04:31:49;;;;;;;0.00;0.00;;;14.80;94.90;;;;;;5000821;28;20018;-88
2023/01/01 04:34:15;;;;;;;0.00;0.00;;;14.80;94.70;;;;;;5005273;28;20017;-90
2023/01/01 04:36:41;;;;;;;0.00;0.00;;;;;;;;;;4997335;28;20031;-89
2023/01/01 04:39:07;;;;;;;0.00;0.00;;;;;;;;;;5019617;28;20054;-90
2023/01/01 04:41:33;;;;;;;0.00;0.00;;;;;;;;;;5000809;28;20027;-91
2023/01/01 04:43:59;;;;;;;0.00;0.00;;;14.90;94.90;;;;;;4998436;28;20014;-89
2023/01/01 04:46:24;;;;;;;0.00;0.00;;;14.90;95.00;;;;;;4999824;28;20022;-89
2023/01/01 04:48:50;;;;;;;0.00;0.00;;;14.90;95.30;;;;;;4998597;28;20022;-89
2023/01/01 04:51:18;;;;;;;0.00;0.00;;;14.70;95.10;;;;;;4998955;28;20021;-89
2023/01/01 04:53:44;;;;;;;0.00;0.00;;;;;;;;;;4998318;28;20039;-90
2023/01/01 04:56:19;;;;;;;0.00;0.00;;;14.80;94.90;;;;;;5019619;28;20046;-89
2023/01/01 04:58:45;;;;;;;0.00;0.00;;;;;;;;;;5002567;28;20022;-89
2023/01/01 05:01:20;;;;;;;0.00;0.00;;;14.80;95.30;;;;;;5019726;28;20022;-89
2023/01/01 05:03:47;;;;;;;0.00;0.00;;;14.90;95.00;;;;;;5014328;28;20042;-89
2023/01/01 05:06:13;;;;;;;0.00;0.00;;;;;;;;;;4999931;28;20029;-89
2023/01/01 05:08:40;;;;;;;0.00;0.00;;;14.90;95.00;;;;;;4998643;28;20041;-89
2023/01/01 05:11:12;;;;;;;0.00;0.00;;;14.90;95.10;;;;;;4999002;28;20042;-89
2023/01/01 05:18:47;;;;;;;0.00;0.00;;;;;;;;;;5019434;28;20042;-89
2023/01/01 05:21:18;;;;;;;0.00;0.00;;;14.90;94.80;;;;;;5032801;28;20076;-90
2023/01/01 05:23:44;;;;;;;0.00;0.00;;;;;;;;;;5015351;28;20033;-89
2023/01/01 05:26:19;;;;;;;0.03;0.03;;;14.90;95.00;;;;;;5013047;28;20109;-90
2023/01/01 05:28:46;;;;;;;0.00;0.00;;;14.90;95.00;;;;;;4992346;28;20019;-88
2023/01/01 05:31:13;;;;;;;0.00;0.00;;;15.00;94.90;;;;;;4994197;28;20031;-89
2023/01/01 05:33:39;;;;;;;0.00;0.00;;;;;;;;;;4996413;28;20022;-90
2023/01/01 05:36:08;;;;;;;0.00;0.00;;;14.90;95.10;;;;;;4991797;28;20032;-88
2023/01/01 05:38:34;;;;;;;0.00;0.00;;;;;;;;;;5010263;28;20038;-89
2023/01/01 05:41:07;;;;;;;0.00;0.00;;;14.90;95.00;;;;;;5015654;28;20039;-90
2023/01/01 05:43:34;;;;;;;0.00;0.00;;;;;;;;;;4995992;28;20038;-89
2023/01/01 05:46:09;;;;;;;0.00;0.00;;;14.90;95.40;;;;;;4993808;28;20065;-89
2023/01/01 05:48:35;;;;;;;0.00;0.00;;;14.90;95.10;;;;;;5000209;28;20018;-90
2023/01/01 05:51:06;;;;;;;0.00;0.00;;;14.90;95.10;;;;;;4996328;28;20088;-89
2023/01/01 05:53:32;;;;;;;0.00;0.00;;;14.90;95.10;;;;;;4995033;28;20050;-89
2023/01/01 05:55:58;;;;;;;0.00;0.00;;;14.90;95.30;;;;;;4994669;28;20062;-89
2023/01/01 05:58:25;;;;;;;0.00;0.00;;;14.80;95.60;;;;;;4997909;28;20018;-89
2023/01/01 06:00:51;;;;;;;0.00;0.00;;;;;;;;;;4993358;28;20019;-89
2023/01/01 06:03:17;;;;;;;0.00;0.00;;;14.80;95.80;;;;;;5009463;28;20018;-89
2023/01/01 06:05:42;;;;;;;0.00;0.00;;;;;;;;;;4999748;28;20090;-88
2023/01/01 06:08:08;;;;;;;0.00;0.00;;;;;;;;;;5008939;28;20074;-89
2023/01/01 06:10:34;;;;;;;0.00;0.00;;;14.80;95.50;;;;;;5011666;28;20030;-89
2023/01/01 06:12:59;;;;;;;0.00;0.00;;;14.80;95.40;;;;;;4992473;28;20030;-87
2023/01/01 06:15:26;;;;;;;0.00;0.00;;;14.80;95.90;;;;;;4995015;28;20046;-89
2023/01/01 06:17:52;;;;;;;0.00;0.00;;;;;;;;;;4998471;28;20038;-89
2023/01/01 06:20:18;;;;;;;0.00;0.00;;;;;;;;;;5006013;28;20017;-89
2023/01/01 06:35:38;;;;;;;0.00;0.00;;;14.40;96.60;;;;;;5031105;28;20041;-90
2023/01/01 06:38:04;;;;;;;0.00;0.00;;;;;;;;;;5016437;28;20045;-89
2023/01/01 06:40:30;;;;;;;0.00;0.00;;;;;;;;;;5017078;28;20014;-89
2023/01/01 06:42:56;;;;;;;0.00;0.00;;;;;;;;;;5017639;28;20037;-88
2023/01/01 06:45:21;;;;;;;0.00;0.00;;;14.30;97.00;;;;;;5011219;28;20033;-89
2023/01/01 06:47:47;;;;;;;0.00;0.00;;;;;;;;;;5016768;28;20025;-88
2023/01/01 06:50:13;;;;;;;0.00;0.00;;;14.30;96.30;;;;;;5018337;28;20014;-89
2023/01/01 06:52:38;;;;;;;0.00;0.00;;;14.30;97.10;;;;;;5014020;28;20022;-89
2023/01/01 06:55:04;;;;;;;0.00;0.00;;;;;;;;;;5015032;28;20054;-90
2023/01/01 06:57:33;;;;;;;0.00;0.00;;;14.40;96.90;;;;;;5019069;28;20006;-89
2023/01/01 06:59:59;;;;;;;0.00;0.00;;;;;;;;;;5014973;28;20050;-88
2023/01/01 07:02:24;;;;;;;0.00;0.00;;;14.60;96.90;;;;;;5011331;28;20018;-89
2023/01/01 07:04:50;;;;;;;0.00;0.00;;;;;;;;;;5016451;28;21792;-89
2023/01/01 07:07:16;;;;;;;0.00;0.00;;;14.60;96.90;;;;;;5020927;28;20030;-89
2023/01/01 07:09:41;;;;;;;0.00;0.00;;;14.50;97.20;;;;;;5016202;28;20014;-90
2023/01/01 07:12:06;;;;;;;0.00;0.00;;;14.50;97.20;;;;;;5021843;28;20076;-88
2023/01/01 07:14:32;;;;;;;0.00;0.00;;;;;;;;;;5021819;28;20021;-89
2023/01/01 07:16:58;;;;;;;0.00;0.00;;;14.60;97.00;;;;;;5018463;28;20044;-87
2023/01/01 07:19:24;;;;;;;0.00;0.00;;;;;;;;;;5020245;28;20041;-88
2023/01/01 07:21:54;;;;;;;0.00;0.00;;;14.50;97.00;;;;;;5016311;28;20033;-90
2023/01/01 07:24:20;;;;;;;;;;;14.40;97.20;;;;;;5018016;28;20025;-87
2023/01/01 07:26:46;;;;;;;0.00;0.00;;;;;;;;;;5021013;28;19904;-89
2023/01/01 07:29:12;;;;;;;0.00;0.00;;;14.60;96.80;;;;;;5009035;28;20033;-89
2023/01/01 07:31:39;;;;;;;0.00;0.00;;;14.60;96.60;;;;;;5020582;28;20032;-89
2023/01/01 07:34:06;;;;;;;0.00;0.00;;;14.60;96.70;;;;;;5035703;23;20048;-89
2023/01/01 07:36:33;;;;;;;0.00;0.00;;;;;;;;;;5057448;28;20243;-88
2023/01/01 07:38:58;;;;;;;0.00;0.00;;;14.50;96.70;;;;;;5075868;28;20021;-89
2023/01/01 07:41:24;;;;;;;0.00;0.00;;;;;;;;;;5057826;28;20074;-89
2023/01/01 07:43:50;;;;;;;0.00;0.00;;;;;;;;;;5063143;28;20025;-89
2023/01/01 07:46:17;;;;;;;0.00;0.00;;;14.70;97.00;;;;;;5062618;28;20017;-90
2023/01/01 08:01:38;;;;;;;0.00;0.00;;;;;;;;;;4991780;28;20055;-90
2023/01/01 08:04:05;;;;;;;0.00;0.00;;;;;;;;;;4976856;28;20033;-92
2023/01/01 08:06:31;;;;;;;0.00;0.00;;;;;;;;;;4981140;28;20477;-92
2023/01/01 08:08:57;;;;;;;0.00;0.00;;;;;;;;;;4976651;28;20027;-91
2023/01/01 08:11:22;;;;;;;0.00;0.00;;;;;;;;;;4994400;28;20034;-92
2023/01/01 08:13:48;;;;;;;0.00;0.00;;;;;;;;;;4977061;28;20038;-93
2023/01/01 08:16:14;;;;;;;0.00;0.00;;;;;;;;;;4976849;28;20097;-91
2023/01/01 08:18:40;;;;;;;0.00;0.00;;;;;;;;;;4996220;28;20170;-91
2023/01/01 08:21:06;;;;;;;0.00;0.00;;;;;;;;;;4980139;28;20031;-91
2023/01/01 08:23:32;;;;;;;0.00;0.00;;;;;;;;;;4972763;28;20099;-92
2023/01/01 08:26:00;;;;;;;0.00;0.00;;;14.60;99.60;;;;;;4993733;28;20034;-91
2023/01/01 08:28:26;;;;;;;0.00;0.00;;;;;;;;;;4973204;28;20030;-92
2023/01/01 08:30:52;;;;;;;0.00;0.00;;;;;;;;;;4976458;28;20041;-91
2023/01/01 08:33:18;;;;;;;0.00;0.00;;;;;;;;;;4982741;28;20094;-91
2023/01/01 08:35:44;;;;;;;0.00;0.00;;;;;;;;;;4982601;28;20504;-91
2023/01/01 08:38:11;;;;;;;0.00;0.00;;;14.20;99.90;;;;;;4995279;28;20038;-91
2023/01/01 08:40:37;;;;;;;0.00;0.00;;;;;;;;;;4995542;28;20053;-91
2023/01/01 08:43:03;;;;;;;0.00;0.00;;;;;;;;;;4991747;28;20030;-91
2023/01/01 08:45:29;;;;;;;0.00;0.00;;;;;;;;;;4994398;28;20044;-91
2023/01/01 08:47:55;;;;;;;0.00;0.00;;;;;;;;;;4966564;28;20042;-90
2023/01/01 08:50:21;;;;;;;0.00;0.00;;;;;;;;;;4992415;28;20030;-91
2023/01/01 08:52:47;;;;;;;0.00;0.00;;;;;;;;;;4992438;28;20120;-91
2023/01/01 08:55:13;;;;;;;0.00;0.00;;;;;;;;;;4976347;28;20030;-89
2023/01/01 08:57:39;;;;;;;0.00;0.00;;;;;;;;;;4986336;28;20039;-91
2023/01/01 09:00:08;;;;;;;0.00;0.00;;;;;;;;;;4977231;28;20038;-90
2023/01/01 09:02:34;;;;;;;0.00;0.00;;;;;;;;;;4993946;28;20382;-92
2023/01/01 09:04:59;;;;;;;0.00;0.00;;;;;;;;;;4972966;28;20037;-91
2023/01/01 09:07:25;;;;;;;0.00;0.00;;;;;;;;;;4970845;28;20875;-91
2023/01/01 09:09:51;;;;;;;0.00;0.00;;;;;;;;;;4975821;28;20516;-91
2023/01/01 09:12:17;;;;;;;0.00;0.00;;;;;;;;;;4996386;28;20026;-91
2023/01/01 09:14:46;;;;;;;0.00;0.00;;;13.50;99.90;;;;;;4994247;28;20042;-91
2023/01/01 09:17:12;;;;;;;0.00;0.00;;;;;;;;;;4976095;28;20481;-91
2023/01/01 09:19:38;;;;;;;0.00;0.00;;;;;;;;;;4988899;28;20053;-92
2023/01/01 09:22:04;;;;;;;0.00;0.00;;;;;;;;;;4969813;28;20027;-90
2023/01/01 09:24:30;;;;;;;0.00;0.00;;;;;;;;;;4992229;28;20500;-91
2023/01/01 09:26:56;;;;;;;0.00;0.00;;;;;;;;;;4969862;28;20408;-91
2023/01/01 09:29:22;;;;;;;0.00;0.00;;;;;;;;;;4967433;28;20121;-91
2023/01/01 09:31:48;;;;;;;0.00;0.00;;;13.30;99.90;;;;;;4990370;28;20086;-91
2023/01/01 09:34:14;;;;;;;0.00;0.00;;;;;;;;;;4973385;28;20050;-90
2023/01/01 09:36:40;;;;;;;0.00;0.00;;;;;;;;;;4972248;28;20038;-90
2023/01/01 09:39:06;;;;;;;0.00;0.00;;;;;;;;;;4974859;28;20027;-91
2023/01/01 09:41:32;;;;;;;0.10;0.10;;;;;;;;;;4994198;28;20095;-90
2023/01/01 09:44:35;;;;;;;0.00;0.00;;;13.30;99.90;;;;;;4976513;28;20094;-90
2023/01/01 09:47:04;;;;;;;0.00;0.00;;;13.30;99.90;;;;;;4976990;28;20093;-91
2023/01/01 09:49:35;;;;;;;0.00;0.00;;;13.20;99.90;;;;;;4974498;28;20033;-92
2023/01/01 09:52:04;;;;;;;0.00;0.00;;;;;;;;;;4975298;28;20044;-91
2023/01/01 09:54:50;;;;;;;0.00;0.00;;;13.10;99.90;;;;;;4977570;28;20034;-90
2023/01/01 09:57:16;;;;;;;0.00;0.00;;;;;;;;;;4976571;28;20121;-90
2023/01/01 09:59:42;;;;;;;0.00;0.00;;;;;;;;;;4972980;28;20576;-91
2023/01/01 10:02:30;;;;;;;0.00;0.00;;;12.80;99.90;;;;;;4971382;28;20023;-90
2023/01/01 10:05:16;;;;;;;0.00;0.00;;;12.80;99.90;;;;;;4992373;28;20027;-91
2023/01/01 10:07:49;;;;;;;0.00;0.00;;;12.70;99.90;;;;;;4969022;28;20054;-92
2023/01/01 10:10:15;;;;;;;0.00;0.00;;;;;;;;;;4989134;28;20033;-89
2023/01/01 10:13:17;;;;;;;0.00;0.00;;;12.80;99.90;;;;;;4972339;28;20030;-92
2023/01/01 10:15:59;;;;;;;0.00;0.00;;;12.70;99.90;;;;;;4979197;28;20030;-90
2023/01/01 10:18:29;;;;;;;0.00;0.00;;;12.90;99.90;;;;;;4992163;28;20038;-91
2023/01/01 10:21:00;;;;;;;0.00;0.00;;;12.80;99.90;;;;;;4977857;28;20030;-91
2023/01/01 10:23:33;;;;;;;0.00;0.00;;;12.70;99.90;;;;;;4991887;28;20030;-92
2023/01/01 10:26:11;;;;;;;0.00;0.00;;;12.60;99.90;;;;;;4989309;28;20065;-93
2023/01/01 10:28:55;;;;;;;0.00;0.00;;;12.60;99.90;;;;;;4991153;28;20042;-91
2023/01/01 10:31:20;;;;;;;0.00;0.00;;;;;;;;;;4962570;28;20081;-91
2023/01/01 10:33:47;;;;;;;0.00;0.00;;;;;;;;;;4987890;28;20457;-90
2023/01/01 10:36:16;;;;;;;0.00;0.00;;;12.30;99.90;;;;;;4965504;28;20035;-91
2023/01/01 10:38:42;;;;;;;0.00;0.00;;;;;;;;;;4969832;28;20034;-90
2023/01/01 10:41:10;;;;;;;0.00;0.00;;;12.20;99.90;;;;;;4991173;28;20036;-93
2023/01/01 10:43:36;;;;;;;0.00;0.00;;;;;;;;;;4992539;28;20054;-90
2023/01/01 10:46:03;;;;;;;0.00;0.00;;;12.30;99.90;;;;;;4972146;28;20180;-91
2023/01/01 10:48:30;;;;;;;0.00;0.00;;;12.30;99.90;;;;;;4988971;28;20049;-91
2023/01/01 10:51:12;;;;;;;0.00;0.00;;;12.30;99.90;;;;;;4992084;28;20053;-91
2023/01/01 10:53:41;;;;;;;0.00;0.00;;;12.30;99.90;;;;;;4994000;28;20481;-91
2023/01/01 10:56:07;;;;;;;0.00;0.00;;;;;;;;;;4977310;28;20125;-92
2023/01/01 10:58:34;;;;;;;0.00;0.00;;;12.10;99.90;;;;;;4992276;28;20111;-91
2023/01/01 11:01:02;;;;;;;0.00;0.00;;;12.20;99.90;;;;;;4971645;28;20097;-92
2023/01/01 11:03:28;;;;;;;0.00;0.00;;;;;;;;;;4975397;28;20451;-90
2023/01/01 11:06:13;;;;;;;0.00;0.00;;;12.30;99.90;;;;;;5000286;28;20129;-91
2023/01/01 11:08:45;;;;;;;0.00;0.00;;;12.40;99.90;;;;;;4987935;28;20034;-90
2023/01/01 11:11:19;;;;;;;0.00;0.00;;;12.40;99.90;;;;;;4992166;28;20045;-92
2023/01/01 11:13:49;;;;;;;0.00;0.00;;;12.40;99.90;;;;;;4991254;28;20034;-91
2023/01/01 11:16:15;;;;;;;0.10;0.10;;;;;;;;;;4978871;28;20133;-94
2023/01/01 11:18:41;;;;;;;0.00;0.00;;;;;;;;;;4990353;28;20174;-91
2023/01/01 11:21:07;;;;;;;0.05;0.05;;;;;;;;;;4975549;28;20026;-91
2023/01/01 11:23:38;;;;;;;0.00;0.00;;;12.30;99.90;;;;;;4996840;28;20026;-92
2023/01/01 11:26:15;;;;;;;0.00;0.00;;;12.30;99.90;;;;;;4979706;28;20092;-91
2023/01/01 11:28:41;;;;;;;0.00;0.00;;;;;;;;;;4969964;28;20047;-91
2023/01/01 11:31:15;;;;;;;0.00;0.00;;;12.30;99.90;;;;;;4965952;28;20031;-90
2023/01/01 11:33:53;;;;;;;0.00;0.00;;;12.30;99.90;;;;;;4990671;28;20038;-92
2023/01/01 11:36:25;;;;;;;0.00;0.00;;;12.30;99.90;;;;;;4991996;28;20050;-91
2023/01/01 11:39:19;;;;;;;0.00;0.00;;;12.30;99.90;;;;;;4980748;28;20030;-89
2023/01/01 11:41:47;;;;;;;0.00;0.00;;;12.40;99.90;;;;;;4975159;28;20414;-92
2023/01/01 11:44:33;;;;;;;0.00;0.00;;;12.40;99.90;;;;;;4980093;28;20452;-91
2023/01/01 11:46:59;;;;;;;0.00;0.00;;;;;;;;;;4991663;28;20041;-91
2023/01/01 11:49:27;;;;;;;0.00;0.00;;;12.40;99.90;;;;;;4966229;28;20413;-91
2023/01/01 11:51:53;;;;;;;0.00;0.00;;;12.50;99.90;;;;;;4997307;28;20032;-91
2023/01/01 11:54:27;;;;;;;0.00;0.00;;;12.50;99.90;;;;;;4978952;28;20031;-92
2023/01/01 11:56:57;;;;;;;0.00;0.00;;;12.50;99.90;;;;;;4988148;28;20117;-91
2023/01/01 11:59:33;;;;;;;0.00;0.00;;;12.50;99.90;;;;;;4975460;28;20109;-91
2023/01/01 12:02:03;;;;;;;0.00;0.00;;;12.50;99.90;;;;;;4994557;28;20044;-91
2023/01/01 12:04:29;;;;;;;;;;;10.20;99.90;;;;;;4977565;28;20030;-89
2023/01/01 12:07:03;;;;;;;0.00;0.00;;;12.50;99.90;;;;;;4992970;28;19956;-92
2023/01/01 12:09:51;;;;;;;0.00;0.00;;;12.60;99.90;;;;;;4984743;28;20053;-90
2023/01/01 12:12:32;;;;;;;0.00;0.00;;;12.70;99.90;;;;;;4981124;28;20022;-90
2023/01/01 12:15:03;;;;;;;0.00;0.00;;;12.70;99.90;;;;;;4997007;28;20038;-92
2023/01/01 12:17:28;;;;;;;0.00;0.00;;;;;;;;;;4997120;28;20073;-90
2023/01/01 12:20:09;;;;;;;0.00;0.00;;;12.90;99.90;;;;;;4997751;28;20026;-90
2023/01/01 12:22:35;;;;;;;0.00;0.00;;;;;;;;;;4985667;28;20022;-92
2023/01/01 12:25:02;;;;;;;0.00;0.00;;;13.10;99.90;;;;;;4974335;28;20405;-92
2023/01/01 12:27:42;;;;;;;0.00;0.00;;;13.10;99.90;;;;;;4996530;28;20057;-92
2023/01/01 12:30:22;;;;;;;0.00;0.00;;;13.10;99.90;;;;;;4989634;28;20105;-90
2023/01/01 12:32:48;;;;;;;0.00;0.00;;;;;;;;;;4972103;28;20034;-90
2023/01/01 12:35:27;;;;;;;0.00;0.00;;;13.00;99.90;;;;;;4975647;28;20042;-91
2023/01/01 12:38:37;;;;;;;0.10;0.10;;;13.00;99.90;;;;;;4992201;28;20400;-92
2023/01/01 12:41:46;;;;;;;0.00;0.00;;;13.00;99.90;;;;;;4979249;28;20031;-92
2023/01/01 12:44:39;;;;;;;0.10;0.10;;;13.00;99.90;;;;;;4977479;28;20038;-92
2023/01/01 12:47:34;;;;;;;0.00;0.00;;;13.10;99.90;;;;;;4972866;28;20458;-91
2023/01/01 12:50:06;;;;;;;0.05;0.05;;;13.00;99.90;;;;;;4983063;28;20053;-91
2023/01/01 12:52:54;;;;;;;0.00;0.00;;;13.00;99.90;;;;;;4968342;28;20029;-91
2023/01/01 12:55:41;;;;;;;0.00;0.00;;;13.00;99.90;;;;;;4983904;28;20030;-90
2023/01/01 12:58:10;;;;;;;0.00;0.00;;;13.00;99.90;;;;;;4993450;28;20029;-90
2023/01/01 13:00:42;;;;;;;0.00;0.00;;;13.00;99.90;;;;;;4994295;28;20023;-90
2023/01/01 13:03:18;;;;;;;0.00;0.00;;;13.10;99.90;;;;;;4976074;28;20033;-90
2023/01/01 13:05:49;;;;;;;0.00;0.00;;;13.10;99.90;;;;;;4979882;28;20061;-91
2023/01/01 13:08:15;;;;;;;0.00;0.00;;;;;;;;;;4975027;28;20030;-90
2023/01/01 13:10:46;;;;;;;0.00;0.00;;;13.20;99.90;;;;;;4994880;28;20030;-91
2023/01/01 13:13:13;;;;;;;0.00;0.00;;;13.20;99.90;;;;;;5000796;28;20125;-91
2023/01/01 13:15:40;;;;;;;0.08;0.08;;;;;;;;;;4991384;28;20030;-91
2023/01/01 13:18:27;;;;;;;0.00;0.00;;;13.20;99.90;;;;;;4995625;28;20049;-89
2023/01/01 13:20:53;;;;;;;0.00;0.00;;;;;;;;;;4979425;28;20030;-89
2023/01/01 13:23:27;;;;;;;0.00;0.00;;;13.10;99.90;;;;;;4992894;28;20076;-91
2023/01/01 13:26:21;;;;;;;0.00;0.00;;;13.00;99.90;;;;;;4987051;28;20106;-89
2023/01/01 13:28:56;;;;;;;0.00;0.00;;;12.90;99.90;;;;;;4974274;28;20548;-89
2023/01/01 13:31:37;;;;;;;0.00;0.00;;;12.90;99.90;;;;;;4973623;28;20058;-88
2023/01/01 13:34:39;;;;;;;0.00;0.00;;;13.00;99.90;;;;;;4991079;28;20110;-90
2023/01/01 13:37:12;;;;;;;0.00;0.00;;;13.00;99.90;;;;;;4991250;28;20609;-90
2023/01/01 13:39:54;;;;;;;0.00;0.00;;;12.90;99.90;;;;;;4974205;28;20027;-90
2023/01/01 13:42:50;;;;;;;0.00;0.00;;;12.90;99.90;;;;;;4959139;28;20476;-91
2023/01/01 13:45:25;;;;;;;0.00;0.00;;;12.90;99.90;;;;;;4967010;28;20042;-91
2023/01/01 13:47:51;;;;;;;0.00;0.00;;;;;;;;;;4982861;28;20493;-90
2023/01/01 13:50:44;;;;;;;0.00;0.00;;;12.80;99.90;;;;;;4990379;28;20034;-91
2023/01/01 13:53:39;;;;;;;0.00;0.00;;;12.80;99.90;;;;;;4940472;28;20052;-91
2023/01/01 13:56:05;;;;;;;0.00;0.00;;;;;;;;;;4981026;28;20027;-89
2023/01/01 13:58:51;;;;;;;0.00;0.00;;;12.80;99.90;;;;;;4975825;28;20035;-91
